createdAt,value
2024-04-07T16:29:36.211Z,27.22
2024-04-07T16:32:22.927Z,27.07
2024-04-07T16:35:10.051Z,26.99
2024-04-07T16:37:56.465Z,26.88
2024-04-07T16:40:42.798Z,26.74
2024-04-07T16:43:29.585Z,26.72
2024-04-07T16:46:17.377Z,26.67
2024-04-07T16:49:08.394Z,26.59
2024-04-07T16:51:54.707Z,26.48
2024-04-07T16:54:41.917Z,26.40
2024-04-07T16:57:28.804Z,26.32
2024-04-07T17:00:17.174Z,26.27
2024-04-07T17:03:04.436Z,26.11
2024-04-07T17:05:51.088Z,26.06
2024-04-07T17:08:42.419Z,26.08
2024-04-07T17:11:33.696Z,26.02
2024-04-07T17:14:21.153Z,25.97
2024-04-07T17:17:07.532Z,25.85
2024-04-07T17:19:53.654Z,25.77
2024-04-07T17:22:40.045Z,25.72
2024-04-07T17:25:26.283Z,25.65
2024-04-07T17:28:12.607Z,25.58
2024-04-07T17:30:58.919Z,25.54
2024-04-07T17:33:45.204Z,25.50
2024-04-07T17:36:32.155Z,25.47
2024-04-07T17:39:18.561Z,25.43
2024-04-07T17:42:05.979Z,25.35
2024-04-07T17:44:52.611Z,25.34
2024-04-07T17:47:38.926Z,25.30
2024-04-07T17:50:25.448Z,25.22
2024-04-07T17:53:12.970Z,25.17
2024-04-07T17:55:58.933Z,25.15
2024-04-07T17:58:45.585Z,25.05
2024-04-07T18:01:31.764Z,25.03
2024-04-07T18:04:18.183Z,25.01
2024-04-07T18:07:05.327Z,24.95
2024-04-07T18:09:52.270Z,24.91
2024-04-07T18:12:38.651Z,24.89
2024-04-07T18:15:25.134Z,24.83
2024-04-07T18:18:11.525Z,24.80
2024-04-07T18:20:57.910Z,24.76
2024-04-07T18:23:44.199Z,24.75
2024-04-07T18:26:31.072Z,24.71
2024-04-07T18:29:17.860Z,24.68
2024-04-07T18:32:04.841Z,24.65
2024-04-07T18:34:51.086Z,24.62
2024-04-07T18:37:37.374Z,24.61
2024-04-07T18:40:26.441Z,24.57
2024-04-07T18:43:12.858Z,24.55
2024-04-07T18:45:59.658Z,24.49
2024-04-07T18:48:46.384Z,24.49
2024-04-07T18:51:32.769Z,24.46
2024-04-07T18:54:19.163Z,24.47
2024-04-07T18:57:05.688Z,24.44
2024-04-07T18:59:53.973Z,24.40
2024-04-07T19:02:45.654Z,24.39
2024-04-07T19:05:32.038Z,24.35
2024-04-07T19:08:19.351Z,24.34
2024-04-07T19:11:06.912Z,24.30
2024-04-07T19:13:54.069Z,24.28
2024-04-07T19:16:40.523Z,24.21
2024-04-07T19:19:26.791Z,24.20
2024-04-07T19:22:13.133Z,24.17
2024-04-07T19:24:59.652Z,24.12
2024-04-07T19:27:46.132Z,24.12
2024-04-07T19:30:32.806Z,24.04
2024-04-07T19:33:19.490Z,24.06
2024-04-07T19:36:06.600Z,24.03
2024-04-07T19:38:53.341Z,23.95
2024-04-07T19:41:40.068Z,23.93
2024-04-07T19:44:28.602Z,23.88
2024-04-07T19:47:14.918Z,23.88
2024-04-07T19:50:01.380Z,23.81
2024-04-07T19:52:52.674Z,23.82
2024-04-07T19:55:39.059Z,23.75
2024-04-07T19:58:25.360Z,23.71
2024-04-07T20:01:11.898Z,23.70
2024-04-07T20:03:58.293Z,23.61
2024-04-07T20:06:44.949Z,23.56
2024-04-07T20:09:35.585Z,23.54
2024-04-07T20:12:23.346Z,23.45
2024-04-07T20:15:11.730Z,23.43
2024-04-07T20:17:58.262Z,23.37
2024-04-07T20:20:44.956Z,23.37
2024-04-07T20:23:31.303Z,23.32
2024-04-07T20:26:17.804Z,23.26
2024-04-07T20:29:04.174Z,23.18
2024-04-07T20:31:50.709Z,23.13
2024-04-07T20:34:38.693Z,23.05
2024-04-07T20:37:24.855Z,23.00
2024-04-07T20:40:12.062Z,22.96
2024-04-07T20:42:59.949Z,22.91
2024-04-07T20:45:47.165Z,22.88
2024-04-07T20:48:34.194Z,22.91
2024-04-07T20:51:22.127Z,22.85
2024-04-07T20:54:10.854Z,22.76
2024-04-07T20:56:57.303Z,22.70
2024-04-07T20:59:43.850Z,22.66
2024-04-07T21:02:30.666Z,22.61
2024-04-07T21:05:17.063Z,22.55
2024-04-07T21:08:03.553Z,22.49
2024-04-07T21:10:50.056Z,22.46
2024-04-07T21:13:36.585Z,22.42
2024-04-07T21:16:23.254Z,22.38
2024-04-07T21:19:10.415Z,22.34
2024-04-07T21:21:57.385Z,22.31
2024-04-07T21:24:43.729Z,22.31
2024-04-07T21:27:30.322Z,22.19
2024-04-07T21:30:16.504Z,22.17
2024-04-07T21:33:03.137Z,22.11
2024-04-07T21:35:49.991Z,22.03
2024-04-07T21:38:36.651Z,21.99
2024-04-07T21:41:23.416Z,21.92
2024-04-07T21:44:10.916Z,21.89
2024-04-07T21:46:57.466Z,21.82
2024-04-07T21:49:43.884Z,21.80
2024-04-07T21:52:30.280Z,21.73
2024-04-07T21:55:17.883Z,21.70
2024-04-07T21:58:05.459Z,21.66
2024-04-07T22:00:52.006Z,21.61
2024-04-07T22:03:38.338Z,21.55
2024-04-07T22:06:24.792Z,21.49
2024-04-07T22:09:15.632Z,21.38
2024-04-07T22:12:02.203Z,21.37
2024-04-07T22:14:48.539Z,21.27
2024-04-07T22:17:35.962Z,21.24
2024-04-07T22:20:24.116Z,21.24
2024-04-07T22:23:11.750Z,21.17
2024-04-07T22:25:58.254Z,21.13
2024-04-07T22:28:45.806Z,21.04
2024-04-07T22:31:32.060Z,20.98
2024-04-07T22:34:18.246Z,20.87
2024-04-07T22:37:04.744Z,20.75
2024-04-07T22:39:51.617Z,20.72
2024-04-07T22:42:38.088Z,20.59
2024-04-07T22:45:24.576Z,20.59
2024-04-07T22:48:12.035Z,20.56
2024-04-07T22:50:58.180Z,20.53
2024-04-07T22:53:44.788Z,20.51
2024-04-07T22:56:31.045Z,20.47
2024-04-07T22:59:17.545Z,20.43
2024-04-07T23:02:05.646Z,20.38
2024-04-07T23:04:53.165Z,20.34
2024-04-07T23:07:39.510Z,20.25
2024-04-07T23:10:25.955Z,20.18
2024-04-07T23:13:12.360Z,20.18
2024-04-07T23:16:09.357Z,19.88
2024-04-07T23:18:55.484Z,19.89
2024-04-07T23:21:41.836Z,19.84
2024-04-07T23:24:28.911Z,19.80
2024-04-07T23:27:14.976Z,19.77
2024-04-07T23:30:04.734Z,19.76
2024-04-07T23:32:51.086Z,19.47
2024-04-07T23:35:37.635Z,19.45
2024-04-07T23:38:29.585Z,19.35
2024-04-07T23:41:19.051Z,19.37
2024-04-07T23:44:05.644Z,19.38
2024-04-07T23:46:52.755Z,19.39
2024-04-07T23:49:39.634Z,19.35
2024-04-07T23:52:25.755Z,19.37
2024-04-07T23:55:12.295Z,19.34
2024-04-07T23:57:59.796Z,19.33
